createdAt,value
2023-03-23T00:00:48.440Z,867.6
2023-03-23T00:02:32.105Z,895.8
2023-03-23T00:04:15.820Z,917.8
2023-03-23T00:05:59.380Z,919.6
2023-03-23T00:07:43.251Z,917.3
2023-03-23T00:09:26.835Z,908.1
2023-03-23T00:11:10.619Z,900.6
2023-03-23T00:12:54.372Z,897.1
2023-03-23T00:14:37.891Z,897.7
2023-03-23T00:16:21.686Z,897.4
2023-03-23T00:18:05.323Z,895.1
2023-03-23T00:19:48.995Z,897.8
2023-03-23T00:21:32.768Z,898.5
2023-03-23T00:23:16.403Z,894.6
2023-03-23T00:25:00.127Z,893.6
2023-03-23T00:26:43.860Z,892.4
2023-03-23T00:28:27.576Z,895.3
2023-03-23T00:30:11.244Z,893.7
2023-03-23T00:31:55.069Z,897
2023-03-23T00:33:38.731Z,911
2023-03-23T00:35:22.321Z,935.4
2023-03-23T00:37:06.028Z,939.9
2023-03-23T00:38:49.728Z,932.2
2023-03-23T00:40:33.513Z,927.7
2023-03-23T00:42:17.257Z,926.4
2023-03-23T00:44:00.970Z,926.5
2023-03-23T00:45:44.674Z,922.8
2023-03-23T00:47:28.377Z,920.9
2023-03-23T00:49:12.025Z,924.1
2023-03-23T00:50:55.734Z,930.2
2023-03-23T00:52:39.454Z,926.2
2023-03-23T00:54:23.209Z,924.7
2023-03-23T00:56:06.835Z,923.1
2023-03-23T00:57:50.449Z,922.5
2023-03-23T00:59:34.291Z,924.6
2023-03-23T01:01:17.901Z,927.5
2023-03-23T01:03:01.564Z,929.2
2023-03-23T01:04:45.327Z,929.3
2023-03-23T01:06:29.051Z,975.7
2023-03-23T01:08:12.727Z,993.4
2023-03-23T01:09:56.369Z,989.7
2023-03-23T01:11:40.153Z,979.5
2023-03-23T01:13:23.917Z,974.4
2023-03-23T01:15:07.498Z,965.7
2023-03-23T01:16:51.350Z,962.4
2023-03-23T01:18:35.021Z,962
2023-03-23T01:20:18.604Z,962.6
2023-03-23T01:22:02.406Z,964.3
2023-03-23T01:23:46.002Z,966.6
2023-03-23T01:25:29.716Z,968.5
2023-03-23T01:27:13.578Z,971.7
2023-03-23T01:28:57.109Z,970.8
2023-03-23T01:30:40.935Z,972.4
2023-03-23T01:32:24.534Z,973.5
2023-03-23T01:34:08.267Z,976.8
2023-03-23T01:35:51.913Z,977.7
2023-03-23T01:37:35.759Z,973.8
2023-03-23T01:39:19.434Z,966.3
2023-03-23T01:41:03.047Z,963.2
2023-03-23T01:42:46.805Z,964.5
2023-03-23T01:44:30.506Z,961.7
2023-03-23T01:46:14.217Z,960.6
2023-03-23T01:47:57.936Z,959.4
2023-03-23T01:49:41.559Z,962.9
2023-03-23T01:51:25.404Z,966.7
2023-03-23T01:53:09.053Z,968.8
2023-03-23T01:54:52.757Z,970.1
2023-03-23T01:56:36.452Z,974.6
2023-03-23T01:58:20.116Z,981.9
2023-03-23T02:00:03.924Z,999.8
2023-03-23T02:01:47.488Z,1018.1
2023-03-23T02:03:31.162Z,1033.4
2023-03-23T02:05:14.895Z,1041.9
2023-03-23T02:06:58.701Z,1049.4
2023-03-23T02:08:42.310Z,1049.1
2023-03-23T02:10:26.059Z,1051.3
2023-03-23T02:12:09.765Z,1050.3
2023-03-23T02:13:53.476Z,1047.9
2023-03-23T02:15:37.097Z,1044.9
2023-03-23T02:17:20.900Z,1045.5
2023-03-23T02:19:04.576Z,1050.6
2023-03-23T02:20:48.379Z,1048.8
2023-03-23T02:22:32.058Z,1047.4
2023-03-23T02:24:15.790Z,1040.7
2023-03-23T02:25:59.417Z,1035.8
2023-03-23T02:27:43.061Z,1030.7
2023-03-23T02:29:26.749Z,1019.6
2023-03-23T02:31:10.404Z,1015.2
2023-03-23T02:32:54.271Z,1012.6
2023-03-23T02:34:37.976Z,1011
2023-03-23T02:36:21.540Z,1009.1
2023-03-23T02:38:05.218Z,1008.4
2023-03-23T02:39:49.074Z,1010.5
2023-03-23T02:41:32.738Z,1008.4
2023-03-23T02:43:16.467Z,1006.7
2023-03-23T02:45:00.177Z,1009.3
2023-03-23T02:46:43.729Z,1005
2023-03-23T02:48:27.582Z,1002.1
2023-03-23T02:50:11.241Z,1000
2023-03-23T02:51:54.904Z,998.7
2023-03-23T02:53:38.640Z,999.2
2023-03-23T02:55:22.296Z,1001
2023-03-23T02:57:06.057Z,1000.8
2023-03-23T02:58:49.788Z,1000.5
2023-03-23T03:00:33.403Z,1002.5
2023-03-23T03:02:17.052Z,1000.1
2023-03-23T03:04:00.959Z,1002.1
2023-03-23T03:05:44.572Z,1002.8
2023-03-23T03:07:28.230Z,1005
2023-03-23T03:09:12.042Z,1006.4
2023-03-23T03:10:55.658Z,1010.4
2023-03-23T03:12:39.335Z,1011.5
2023-03-23T03:14:23.021Z,1005.8
2023-03-23T03:16:06.677Z,1001.8
2023-03-23T03:17:50.379Z,1003.9
2023-03-23T03:19:34.137Z,1007.4
2023-03-23T03:21:17.893Z,1014
2023-03-23T03:23:01.677Z,1015.2
2023-03-23T03:24:45.325Z,1015.7
2023-03-23T03:26:28.969Z,1020
2023-03-23T03:28:12.738Z,1021.5
2023-03-23T03:29:56.394Z,1023.9
2023-03-23T03:31:40.136Z,1024.7
2023-03-23T03:33:23.791Z,1024.1
2023-03-23T03:35:07.521Z,1024.4
2023-03-23T03:36:51.271Z,1025.3
2023-03-23T03:38:34.862Z,1025.8
2023-03-23T03:40:18.627Z,1026.6
2023-03-23T03:42:02.378Z,1027.9
2023-03-23T03:43:46.104Z,1027.6
2023-03-23T03:45:29.718Z,1026.6
2023-03-23T03:47:13.354Z,1027.5
2023-03-23T03:48:57.035Z,1029.8
2023-03-23T03:50:40.860Z,1032.9
2023-03-23T03:52:24.536Z,1037.4
2023-03-23T03:54:08.244Z,1039
2023-03-23T03:55:51.853Z,1038.4
2023-03-23T03:57:35.704Z,1033.5
2023-03-23T03:59:19.254Z,1035.1
2023-03-23T04:01:02.946Z,1038.1
2023-03-23T04:02:46.664Z,1038.9
2023-03-23T04:04:30.362Z,1036.1
2023-03-23T04:06:14.075Z,1037.4
2023-03-23T04:07:57.762Z,1039.4
2023-03-23T04:09:41.628Z,1039.6
2023-03-23T04:11:25.160Z,1038.9
2023-03-23T04:13:08.863Z,1043
2023-03-23T04:14:52.709Z,1054.3
2023-03-23T04:16:36.347Z,1058.7
2023-03-23T04:18:20.012Z,1059
2023-03-23T04:20:03.668Z,1058.8
2023-03-23T04:21:47.490Z,1057.6
2023-03-23T04:23:31.116Z,1065.1
2023-03-23T04:25:14.788Z,1069.7
2023-03-23T04:26:58.585Z,1068.5
2023-03-23T04:28:42.308Z,1069.2
2023-03-23T04:30:25.890Z,1074
2023-03-23T04:32:09.595Z,1078.4
2023-03-23T04:33:53.397Z,1078.9
2023-03-23T04:35:37.140Z,1078.3
2023-03-23T04:37:20.700Z,1077.2
2023-03-23T04:39:04.413Z,1076.6
2023-03-23T04:40:48.101Z,1079.1
2023-03-23T04:42:31.959Z,1077.8
2023-03-23T04:44:15.512Z,1078.2
2023-03-23T04:45:59.338Z,1080.6
2023-03-23T04:47:42.988Z,1083.6
2023-03-23T04:49:26.719Z,1085.4
2023-03-23T04:51:10.359Z,1086.5
2023-03-23T04:52:54.040Z,1088.1
2023-03-23T04:54:37.851Z,1086.5
2023-03-23T04:56:21.429Z,1090.1
2023-03-23T04:58:05.285Z,1087.5
2023-03-23T04:59:48.833Z,1090.5
2023-03-23T05:01:32.652Z,1092.5
2023-03-23T05:03:16.252Z,1093.1
2023-03-23T05:05:00.121Z,1096.2
2023-03-23T05:06:43.743Z,1095.9
2023-03-23T05:08:27.517Z,1094.7
2023-03-23T05:10:11.197Z,1092
2023-03-23T05:11:54.952Z,1091.5
2023-03-23T05:13:38.649Z,1092.2
2023-03-23T05:15:22.284Z,1089.4
2023-03-23T05:17:05.864Z,1089.5
2023-03-23T05:18:49.574Z,1092
2023-03-23T05:20:33.373Z,1091.7
2023-03-23T05:22:16.968Z,1091.4
2023-03-23T05:24:00.809Z,1091
2023-03-23T05:25:44.373Z,1088.5
2023-03-23T05:27:28.172Z,1091.8
2023-03-23T05:29:11.983Z,1090.9
2023-03-23T05:30:55.484Z,1091.9
2023-03-23T05:32:39.322Z,1095.2
2023-03-23T05:34:22.896Z,1103.1
2023-03-23T05:36:06.704Z,1103.8
2023-03-23T05:37:50.284Z,1103.6
2023-03-23T05:39:34.097Z,1102.4
2023-03-23T05:41:17.683Z,1105.8
2023-03-23T05:43:01.568Z,1107.6
2023-03-23T05:44:45.268Z,1107.2
2023-03-23T05:46:28.897Z,1107.4
2023-03-23T05:48:12.509Z,1104.9
2023-03-23T05:49:56.275Z,1105.9
2023-03-23T05:51:39.904Z,1103.7
2023-03-23T05:53:23.696Z,1104.6
2023-03-23T05:55:07.347Z,1105.2
2023-03-23T05:56:51.156Z,1107.8
2023-03-23T05:58:34.874Z,1110.6
2023-03-23T06:00:18.422Z,1116.7
2023-03-23T06:02:02.199Z,1117.9
2023-03-23T06:03:45.988Z,1164.4
2023-03-23T06:05:29.671Z,1393.1
2023-03-23T06:07:13.274Z,1378.7
2023-03-23T06:08:56.937Z,1351.1
2023-03-23T06:10:40.771Z,1288.9
2023-03-23T06:12:24.433Z,1265
2023-03-23T06:14:08.183Z,1259.9
2023-03-23T06:15:51.897Z,1252.4
2023-03-23T06:17:35.613Z,1259.1
2023-03-23T06:19:19.345Z,1270
2023-03-23T06:21:02.849Z,1301.2
2023-03-23T06:22:46.766Z,1303.1
2023-03-23T06:24:30.417Z,1311.2
2023-03-23T06:26:13.953Z,1330.5
2023-03-23T06:27:57.825Z,1349.5
2023-03-23T06:29:41.541Z,1356.7
2023-03-23T06:31:25.072Z,1370.9
2023-03-23T06:33:08.919Z,1387.8
2023-03-23T06:34:52.671Z,1396.6
2023-03-23T06:36:36.188Z,1403.6
2023-03-23T06:38:19.866Z,1414.6
2023-03-23T06:40:03.777Z,1420.4
2023-03-23T06:41:47.426Z,1401.5
2023-03-23T06:43:31.169Z,1378.4
2023-03-23T06:45:14.779Z,1372.3
2023-03-23T06:46:58.534Z,1363.4
2023-03-23T06:48:42.166Z,1369.1
2023-03-23T06:50:25.999Z,1377.3
2023-03-23T06:52:09.664Z,1381.1
2023-03-23T06:53:53.335Z,1387
2023-03-23T06:55:37.122Z,1387
2023-03-23T06:57:20.813Z,1389.9
2023-03-23T06:59:04.473Z,1393.9
2023-03-23T07:00:48.154Z,1390.4
2023-03-23T07:02:31.756Z,1390.3
2023-03-23T07:04:15.516Z,1389
2023-03-23T07:05:59.297Z,1384.4
2023-03-23T07:07:42.835Z,1384.3
2023-03-23T07:09:26.680Z,1383.8
2023-03-23T07:11:10.377Z,1382.1
2023-03-23T07:12:54.127Z,1385.1
2023-03-23T07:14:37.865Z,1382.8
2023-03-23T07:16:21.535Z,1382.7
2023-03-23T07:18:05.245Z,1385.6
2023-03-23T07:19:48.921Z,1386.9
2023-03-23T07:21:32.601Z,1383.7
2023-03-23T07:23:16.135Z,1381.7
2023-03-23T07:25:00.042Z,1383.5
2023-03-23T07:26:43.672Z,1386.4
2023-03-23T07:28:27.438Z,1388.4
2023-03-23T07:30:11.116Z,1391.7
2023-03-23T07:31:54.896Z,1413.1
2023-03-23T07:33:38.538Z,1426.5
2023-03-23T07:35:22.215Z,1422.9
2023-03-23T07:37:06.000Z,1419.2
2023-03-23T07:38:49.661Z,1419.9
2023-03-23T07:40:33.294Z,1414.1
2023-03-23T07:42:16.873Z,1412.3
2023-03-23T07:44:00.577Z,1417.9
2023-03-23T07:45:44.427Z,1416.6
2023-03-23T07:47:28.181Z,1410.8
2023-03-23T07:49:11.861Z,1408.2
2023-03-23T07:50:55.505Z,1406
2023-03-23T07:52:39.255Z,1407.2
2023-03-23T07:54:22.797Z,1405.3
2023-03-23T07:56:06.483Z,1402.8
2023-03-23T07:57:50.194Z,1399
2023-03-23T07:59:33.961Z,1396.5
2023-03-23T08:01:17.752Z,1398.7
2023-03-23T08:03:01.313Z,1405.1
2023-03-23T08:04:45.066Z,1408.5
2023-03-23T08:06:28.741Z,1407.5
2023-03-23T08:08:12.516Z,1408
2023-03-23T08:09:56.158Z,1411.6
2023-03-23T08:11:39.822Z,1411.5
2023-03-23T08:15:07.324Z,1412.1
2023-03-23T08:16:51.044Z,1411.1
2023-03-23T08:18:34.712Z,1403
2023-03-23T08:20:18.468Z,1400.5
2023-03-23T08:22:02.147Z,1394.2
2023-03-23T08:23:45.840Z,1392
2023-03-23T08:25:29.442Z,1385.3
2023-03-23T08:27:13.279Z,1382.5
2023-03-23T08:28:56.977Z,1379.9
2023-03-23T08:30:40.560Z,1378.5
2023-03-23T08:32:24.402Z,1378.2
2023-03-23T08:34:07.974Z,1376.7
2023-03-23T08:35:51.711Z,1374.6
2023-03-23T08:37:35.447Z,1376.9
2023-03-23T08:39:19.044Z,1378.3
2023-03-23T08:41:02.835Z,1381.5
2023-03-23T08:42:46.516Z,1376.7
2023-03-23T08:44:30.167Z,1375.6
2023-03-23T08:46:14.004Z,1375.2
2023-03-23T08:47:57.578Z,1375.8
2023-03-23T08:49:41.277Z,1376.7
2023-03-23T08:51:25.024Z,1376.1
2023-03-23T08:53:08.711Z,1372.9
2023-03-23T08:54:52.395Z,1375.8
2023-03-23T08:56:36.156Z,1381.1
2023-03-23T08:58:19.957Z,1383.9
2023-03-23T09:00:03.497Z,1391.2
2023-03-23T09:01:47.335Z,1399
2023-03-23T09:03:31.013Z,1403.8
2023-03-23T09:05:14.606Z,1639.6
2023-03-23T09:06:58.398Z,1772.2
2023-03-23T09:08:42.009Z,1657.3
2023-03-23T09:10:26.226Z,1565.6
2023-03-23T09:12:09.495Z,1550.8
2023-03-23T09:13:53.287Z,1541.7
2023-03-23T09:15:36.978Z,1522.5
2023-03-23T09:17:20.770Z,1519.1
2023-03-23T09:19:04.229Z,1517.5
2023-03-23T09:20:47.922Z,1513.8
2023-03-23T09:22:31.717Z,1511.9
2023-03-23T09:24:15.403Z,1510.8
2023-03-23T09:25:59.143Z,1511.2
2023-03-23T09:27:42.859Z,1515.4
2023-03-23T09:29:26.441Z,1518.3
2023-03-23T09:31:10.196Z,1521.5
2023-03-23T09:32:53.877Z,1523
2023-03-23T09:34:37.626Z,1518.6
2023-03-23T09:36:21.390Z,1520.4
2023-03-23T09:38:04.959Z,1519.9
2023-03-23T09:39:48.662Z,1521.5
2023-03-23T09:41:32.456Z,1519.7
2023-03-23T09:43:16.064Z,1518.2
2023-03-23T09:44:59.916Z,1520.4
2023-03-23T09:46:43.599Z,1518.1
2023-03-23T09:48:27.166Z,1522.6
2023-03-23T09:50:10.939Z,1525.6
2023-03-23T09:51:54.669Z,1525.1
2023-03-23T09:53:38.307Z,1525.5
2023-03-23T09:55:22.156Z,1527.1
2023-03-23T09:57:05.812Z,1531
2023-03-23T09:58:49.508Z,1529.6
2023-03-23T10:00:33.245Z,1528.2
2023-03-23T10:02:16.941Z,1528.3
2023-03-23T10:04:00.660Z,1524.5
2023-03-23T10:05:44.317Z,1524.9
2023-03-23T10:07:27.991Z,1526.6
2023-03-23T10:09:11.592Z,1530.2
2023-03-23T10:10:55.309Z,1531.2
2023-03-23T10:12:39.161Z,1532.4
2023-03-23T10:14:22.708Z,1536
2023-03-23T10:16:06.412Z,1538.1
2023-03-23T10:17:50.116Z,1542.1
2023-03-23T10:19:33.904Z,1541
2023-03-23T10:21:17.537Z,1536.9
2023-03-23T10:23:01.387Z,1536.5
2023-03-23T10:24:45.044Z,1535.1
2023-03-23T10:26:28.771Z,1535.2
2023-03-23T10:28:12.446Z,1538.6
2023-03-23T10:29:56.104Z,1543.3
2023-03-23T10:31:39.842Z,1548.6
2023-03-23T10:33:23.457Z,1557.7
2023-03-23T10:35:07.246Z,1560.9
2023-03-23T10:36:50.941Z,1561.4
2023-03-23T10:38:34.616Z,1560.2
2023-03-23T10:40:18.319Z,1561.7
2023-03-23T10:42:01.973Z,1563
2023-03-23T10:43:45.715Z,1564.6
2023-03-23T10:45:29.350Z,1569.3
2023-03-23T10:47:13.055Z,1573
2023-03-23T10:48:56.814Z,1579.1
2023-03-23T10:50:40.514Z,1582.8
2023-03-23T10:52:24.261Z,1584.7
2023-03-23T10:54:07.955Z,1583.8
2023-03-23T10:55:51.608Z,1593.4
2023-03-23T10:57:35.429Z,1592.6
2023-03-23T10:59:19.113Z,1603.2
2023-03-23T11:01:02.713Z,1610.5
2023-03-23T11:02:46.473Z,1614.1
2023-03-23T11:04:30.162Z,1612.4
2023-03-23T11:06:13.817Z,1620.8
2023-03-23T11:07:57.586Z,1620.5
2023-03-23T11:09:41.339Z,1822.9
2023-03-23T11:11:25.005Z,1905.6
2023-03-23T11:13:08.698Z,1913.8
2023-03-23T11:14:52.455Z,1906
2023-03-23T11:16:36.160Z,1899.8
2023-03-23T11:18:19.710Z,1878.2
2023-03-23T11:20:03.409Z,1848.4
2023-03-23T11:21:47.166Z,1827.7
2023-03-23T11:23:30.881Z,1819.8
2023-03-23T11:25:14.566Z,1830.4
2023-03-23T11:26:58.322Z,1836.4
2023-03-23T11:28:42.118Z,1844.8
2023-03-23T11:30:25.647Z,1864.2
2023-03-23T11:32:09.397Z,1872
2023-03-23T11:33:53.079Z,1865.4
2023-03-23T11:35:36.802Z,1864.6
2023-03-23T11:37:20.608Z,1864.3
2023-03-23T11:39:04.139Z,1860.4
2023-03-23T11:40:47.836Z,1855.6
2023-03-23T11:42:31.543Z,1847.2
2023-03-23T11:44:15.252Z,1829.2
2023-03-23T11:45:59.063Z,1823.2
2023-03-23T11:47:42.811Z,1820.5
2023-03-23T11:49:26.363Z,1811
2023-03-23T11:51:10.091Z,1801.9
2023-03-23T11:52:53.802Z,1797.9
2023-03-23T11:54:37.461Z,1796.9
2023-03-23T11:56:21.285Z,1800.2
2023-03-23T11:58:04.971Z,1803.3
2023-03-23T11:59:48.724Z,1804.9
2023-03-23T12:01:32.400Z,1799.6
2023-03-23T12:03:16.155Z,1784.4
2023-03-23T12:04:59.672Z,1779.4
2023-03-23T12:06:43.536Z,1780.9
2023-03-23T12:08:27.076Z,1777.1
2023-03-23T12:10:10.771Z,1766.3
2023-03-23T12:11:54.474Z,1758.4
2023-03-23T12:13:38.177Z,1752.2
2023-03-23T12:15:22.198Z,1745.2
2023-03-23T12:17:05.747Z,1735.9
2023-03-23T12:18:49.293Z,1730.3
2023-03-23T12:20:33.156Z,1722.5
2023-03-23T12:22:16.689Z,1723.3
2023-03-23T12:24:00.515Z,1723.5
2023-03-23T12:25:44.115Z,1726.4
2023-03-23T12:27:27.962Z,1721.7
2023-03-23T12:29:11.657Z,1716
2023-03-23T12:30:55.357Z,1706.5
2023-03-23T12:32:38.900Z,1696
2023-03-23T12:34:22.791Z,1686.1
2023-03-23T12:36:06.319Z,1678.8
2023-03-23T12:37:50.003Z,1672
2023-03-23T12:39:33.909Z,1670.4
2023-03-23T12:41:17.423Z,1662.4
2023-03-23T12:43:01.254Z,1660
2023-03-23T12:44:45.017Z,1659.9
2023-03-23T12:46:28.675Z,1652.3
2023-03-23T12:48:12.372Z,1644.7
2023-03-23T12:49:55.944Z,1630.2
2023-03-23T12:51:39.632Z,1626.1
2023-03-23T12:53:23.331Z,1618.7
2023-03-23T12:55:07.039Z,1613.6
2023-03-23T12:56:50.753Z,1611.7
2023-03-23T12:58:34.452Z,1609.7
2023-03-23T13:00:18.186Z,1606.8
2023-03-23T13:02:01.853Z,1591.7
2023-03-23T13:03:45.673Z,1586.7
2023-03-23T13:05:29.241Z,1588.5
2023-03-23T13:07:12.959Z,1586.3
2023-03-23T13:08:56.706Z,1586.9
2023-03-23T13:10:40.512Z,1593.6
2023-03-23T13:12:24.139Z,1590.8
2023-03-23T13:14:07.853Z,1582.6
2023-03-23T13:15:51.465Z,1578.8
2023-03-23T13:17:35.167Z,1575.2
2023-03-23T13:19:18.885Z,1572.4
2023-03-23T13:21:02.716Z,1567.6
2023-03-23T13:22:46.279Z,1563.6
2023-03-23T13:24:30.138Z,1555
2023-03-23T13:26:13.804Z,1516.2
2023-03-23T13:27:57.404Z,1504.6
2023-03-23T13:29:41.250Z,1497.6
2023-03-23T13:31:24.874Z,1493.7
2023-03-23T13:33:08.504Z,1491
2023-03-23T13:34:52.201Z,1483.2
2023-03-23T13:36:35.908Z,1476.4
2023-03-23T13:38:19.781Z,1473.8
2023-03-23T13:40:03.467Z,1480.8
2023-03-23T13:41:47.020Z,1576.5
2023-03-23T13:43:30.783Z,1557.5
2023-03-23T13:45:14.585Z,1499.3
2023-03-23T13:46:58.117Z,1508.4
2023-03-23T13:48:41.898Z,1516.9
2023-03-23T13:50:25.663Z,1513.3
2023-03-23T13:52:09.360Z,1508.8
2023-03-23T13:53:52.953Z,1501.5
2023-03-23T13:55:36.623Z,1482.1
2023-03-23T13:57:20.401Z,1471.8
2023-03-23T13:59:04.187Z,1472.2
2023-03-23T14:00:47.922Z,1469.1
2023-03-23T14:04:15.210Z,1463.4
2023-03-23T14:05:58.995Z,1460.5
2023-03-23T14:07:42.602Z,1461.4
2023-03-23T14:09:26.373Z,1456.5
2023-03-23T14:11:10.071Z,1450.6
2023-03-23T14:12:53.655Z,1444.7
2023-03-23T14:14:37.387Z,1441.9
2023-03-23T14:16:21.198Z,1433.2
2023-03-23T14:18:04.912Z,1448.4
2023-03-23T14:19:48.622Z,1519.4
2023-03-23T14:23:15.946Z,1471.5
2023-03-23T14:24:59.562Z,1460.2
2023-03-23T14:26:43.384Z,1448.1
2023-03-23T14:28:27.099Z,1437.1
2023-03-23T14:30:10.729Z,1432.1
2023-03-23T14:31:54.404Z,1424.7
2023-03-23T14:33:38.110Z,1418.8
2023-03-23T14:35:21.777Z,1414.4
2023-03-23T14:37:05.648Z,1415
2023-03-23T14:38:49.336Z,1418.3
2023-03-23T14:40:33.087Z,1416
2023-03-23T14:42:16.732Z,1411.3
2023-03-23T14:44:00.308Z,1412.8
2023-03-23T14:45:44.130Z,1410.9
2023-03-23T14:47:27.690Z,1422.8
2023-03-23T14:49:11.514Z,1430.1
2023-03-23T14:50:55.573Z,1429.8
2023-03-23T14:52:38.819Z,1429.8
2023-03-23T14:54:22.623Z,1425.2
2023-03-23T14:56:06.218Z,1420.3
2023-03-23T14:57:50.085Z,1406.4
2023-03-23T14:59:33.645Z,1399.9
2023-03-23T15:01:17.350Z,1396.7
2023-03-23T15:03:01.024Z,1394
2023-03-23T15:04:44.871Z,1391.2
2023-03-23T15:06:28.550Z,1384.2
2023-03-23T15:08:12.273Z,1381.5
2023-03-23T15:09:55.988Z,1379.2
2023-03-23T15:11:39.689Z,1377.2
2023-03-23T15:13:23.270Z,1375.4
2023-03-23T15:15:06.935Z,1370
2023-03-23T15:16:50.642Z,1368.9
2023-03-23T15:18:34.525Z,1365.7
2023-03-23T15:20:18.043Z,1359.2
2023-03-23T15:22:01.936Z,1351.1
2023-03-23T15:23:45.592Z,1352
2023-03-23T15:25:29.380Z,1352.3
2023-03-23T15:27:12.965Z,1357.3
2023-03-23T15:28:56.728Z,1350.6
2023-03-23T15:30:40.426Z,1345.1
2023-03-23T15:32:23.973Z,1350.2
2023-03-23T15:34:07.695Z,1362.4
2023-03-23T15:35:51.413Z,1371.7
2023-03-23T15:37:35.176Z,1373.2
2023-03-23T15:39:18.797Z,1366.2
2023-03-23T15:41:02.680Z,1360.3
2023-03-23T15:42:46.300Z,1360
2023-03-23T15:46:13.783Z,1359.8
2023-03-23T15:47:57.301Z,1357.1
2023-03-23T15:49:41.150Z,1358.6
2023-03-23T15:51:24.885Z,1360.9
2023-03-23T15:53:08.570Z,1397.2
2023-03-23T15:54:52.283Z,1406.6
2023-03-23T15:56:35.951Z,1411.1
2023-03-23T15:58:19.656Z,1407.4
2023-03-23T16:00:03.336Z,1405
2023-03-23T16:01:47.073Z,1396.1
2023-03-23T16:03:30.782Z,1391.6
2023-03-23T16:05:14.416Z,1392.4
2023-03-23T16:06:58.224Z,1394.4
2023-03-23T16:08:41.890Z,1390.9
2023-03-23T16:10:25.505Z,1386.2
2023-03-23T16:12:09.300Z,1382.8
2023-03-23T16:13:52.827Z,1376.9
2023-03-23T16:15:36.527Z,1372.8
2023-03-23T16:17:20.432Z,1362.2
2023-03-23T16:19:04.061Z,1359
2023-03-23T16:20:47.818Z,1359.3
2023-03-23T16:22:31.491Z,1367.8
2023-03-23T16:24:15.203Z,1381.3
2023-03-23T16:25:58.950Z,1388
2023-03-23T16:27:42.442Z,1387.4
2023-03-23T16:29:26.353Z,1380.3
2023-03-23T16:31:09.862Z,1378.6
2023-03-23T16:32:53.637Z,1376.4
2023-03-23T16:34:37.455Z,1467
2023-03-23T16:36:21.004Z,1544.5
2023-03-23T16:38:04.817Z,1553.7
2023-03-23T16:39:48.510Z,1522.5
2023-03-23T16:41:32.108Z,1501.1
2023-03-23T16:43:15.767Z,1493.4
2023-03-23T16:44:59.500Z,1492.2
2023-03-23T16:46:43.286Z,1488.6
2023-03-23T16:48:27.006Z,1486.1
2023-03-23T16:50:10.589Z,1485.5
2023-03-23T16:51:54.404Z,1482.1
2023-03-23T16:53:38.067Z,1479.6
2023-03-23T16:55:21.810Z,1477.6
2023-03-23T16:57:05.574Z,1472.1
2023-03-23T16:58:49.104Z,1463.5
2023-03-23T17:00:32.948Z,1462.2
2023-03-23T17:02:16.540Z,1461
2023-03-23T17:04:00.355Z,1461.8
2023-03-23T17:05:43.954Z,1468.5
2023-03-23T17:07:27.790Z,1476.3
2023-03-23T17:09:11.335Z,1484.8
2023-03-23T17:10:55.230Z,1494.5
2023-03-23T17:12:38.800Z,1500.7
2023-03-23T17:14:22.457Z,1507.3
2023-03-23T17:16:06.273Z,1517.3
2023-03-23T17:17:49.887Z,1519
2023-03-23T17:19:33.525Z,1517.1
2023-03-23T17:21:17.400Z,1510.6
2023-03-23T17:23:00.939Z,1502.7
2023-03-23T17:24:44.737Z,1494.8
2023-03-23T17:26:28.442Z,1487.3
2023-03-23T17:28:12.166Z,1480.2
2023-03-23T17:29:55.912Z,1475.2
2023-03-23T17:31:39.480Z,1465.9
2023-03-23T17:33:23.417Z,1461.3
2023-03-23T17:35:06.915Z,1457.5
2023-03-23T17:36:50.686Z,1453.6
2023-03-23T17:38:34.256Z,1453
2023-03-23T17:40:18.117Z,1454.7
2023-03-23T17:42:01.726Z,1460.3
2023-03-23T17:43:45.461Z,1459
2023-03-23T17:45:29.201Z,1457.9
2023-03-23T17:47:13.050Z,1461
2023-03-23T17:48:56.619Z,1457.3
2023-03-23T17:50:40.327Z,1456.5
2023-03-23T17:52:24.090Z,1456.9
2023-03-23T17:54:07.733Z,1454.1
2023-03-23T17:55:51.410Z,1453.8
2023-03-23T17:59:18.863Z,1464.8
2023-03-23T18:01:02.538Z,1469.9
2023-03-23T18:02:46.214Z,1475.6
2023-03-23T18:04:29.969Z,1483.4
2023-03-23T18:06:13.601Z,1491.2
2023-03-23T18:07:57.362Z,1719.1
2023-03-23T18:09:41.103Z,1795.6
2023-03-23T18:11:24.769Z,1822.2
2023-03-23T18:13:08.379Z,1813.3
2023-03-23T18:14:52.001Z,1789.5
2023-03-23T18:16:35.700Z,1699.1
2023-03-23T18:18:19.583Z,1687.3
2023-03-23T18:20:03.199Z,1675.5
2023-03-23T18:21:46.917Z,1655.4
2023-03-23T18:23:30.661Z,1655.1
2023-03-23T18:25:14.322Z,1656
2023-03-23T18:26:57.978Z,1651.6
2023-03-23T18:28:41.778Z,1656
2023-03-23T18:30:25.479Z,1652.5
2023-03-23T18:32:09.220Z,1649.7
2023-03-23T18:33:52.760Z,1645.6
2023-03-23T18:35:36.415Z,1642.6
2023-03-23T18:37:20.347Z,1639.6
2023-03-23T18:39:04.024Z,1638
2023-03-23T18:40:47.535Z,1642.9
2023-03-23T18:42:31.250Z,1640
2023-03-23T18:44:15.172Z,1628.4
2023-03-23T18:45:58.723Z,1618.7
2023-03-23T18:47:42.620Z,1608.6
2023-03-23T18:49:26.198Z,1597.7
2023-03-23T18:51:09.949Z,1593.1
2023-03-23T18:52:53.457Z,1588.6
2023-03-23T18:54:37.339Z,1582.4
2023-03-23T18:56:21.017Z,1580.1
2023-03-23T18:58:04.704Z,1576.4
2023-03-23T18:59:48.443Z,1567.5
2023-03-23T19:01:32.113Z,1564.8
2023-03-23T19:03:15.815Z,1563.4
2023-03-23T19:04:59.556Z,1557.6
2023-03-23T19:06:43.143Z,1552.8
2023-03-23T19:08:26.967Z,1544.6
2023-03-23T19:10:10.699Z,1541.7
2023-03-23T19:13:38.071Z,1537.5
2023-03-23T19:15:21.783Z,1536.1
2023-03-23T19:17:05.499Z,1532.4
2023-03-23T19:18:49.196Z,1526.4
2023-03-23T19:20:32.701Z,1523.2
2023-03-23T19:22:16.619Z,1523.7
2023-03-23T19:24:00.300Z,1522.2
2023-03-23T19:25:43.797Z,1516.9
2023-03-23T19:27:27.684Z,1512.6
2023-03-23T19:29:11.382Z,1510.5
2023-03-23T19:30:55.091Z,1507.4
2023-03-23T19:32:38.804Z,1506.1
2023-03-23T19:34:22.545Z,1497.4
2023-03-23T19:36:06.044Z,1487.3
2023-03-23T19:37:49.891Z,1484.4
2023-03-23T19:39:33.645Z,1480.3
2023-03-23T19:41:17.128Z,1467.7
2023-03-23T19:43:00.835Z,1461.1
2023-03-23T19:44:44.689Z,1458.5
2023-03-23T19:46:28.234Z,1456
2023-03-23T19:48:12.099Z,1452.5
2023-03-23T19:49:55.805Z,1452.1
2023-03-23T19:51:39.500Z,1453.3
2023-03-23T19:53:23.246Z,1453.1
2023-03-23T19:55:06.940Z,1454.8
2023-03-23T19:56:50.624Z,1452.2
2023-03-23T19:58:34.305Z,1447.5
2023-03-23T20:00:18.101Z,1441.1
2023-03-23T20:02:01.737Z,1439.2
2023-03-23T20:03:45.459Z,1439.2
2023-03-23T20:05:29.022Z,1439.5
2023-03-23T20:07:12.852Z,1429.9
2023-03-23T20:08:56.551Z,1423.6
2023-03-23T20:10:40.252Z,1423.6
2023-03-23T20:12:23.941Z,1421.6
2023-03-23T20:14:07.679Z,1409
2023-03-23T20:15:51.186Z,1407.4
2023-03-23T20:17:35.036Z,1407.9
2023-03-23T20:19:18.765Z,1400.8
2023-03-23T20:21:02.506Z,1395.2
2023-03-23T20:22:46.173Z,1398.3
2023-03-23T20:24:29.714Z,1398.7
2023-03-23T20:26:13.404Z,1400.2
2023-03-23T20:27:57.197Z,1399.8
2023-03-23T20:29:40.849Z,1398.9
2023-03-23T20:31:24.591Z,1401.5
2023-03-23T20:33:08.329Z,1403.3
2023-03-23T20:34:52.056Z,1403.5
2023-03-23T20:36:35.655Z,1405.7
2023-03-23T20:38:19.502Z,1402.3
2023-03-23T20:40:03.031Z,1397.9
2023-03-23T20:41:46.822Z,1392.1
2023-03-23T20:43:30.594Z,1386.7
2023-03-23T20:45:14.309Z,1383.4
2023-03-23T20:46:58.017Z,1387.3
2023-03-23T20:48:41.679Z,1380.8
2023-03-23T20:50:25.430Z,1372.6
2023-03-23T20:52:09.124Z,1370.2
2023-03-23T20:53:52.662Z,1367.7
2023-03-23T20:55:36.352Z,1369.8
2023-03-23T20:57:20.047Z,1370.4
2023-03-23T20:59:03.778Z,1366.9
2023-03-23T21:00:47.447Z,1364.4
2023-03-23T21:02:31.319Z,1366.2
2023-03-23T21:04:15.019Z,1369.5
2023-03-23T21:05:58.659Z,1367.3
2023-03-23T21:07:42.331Z,1362.9
2023-03-23T21:09:26.088Z,1364.3
2023-03-23T21:11:09.880Z,1364.4
2023-03-23T21:12:53.526Z,1365.9
2023-03-23T21:14:37.243Z,1361.6
2023-03-23T21:16:20.943Z,1354.2
2023-03-23T21:18:04.695Z,1346.8
2023-03-23T21:19:48.345Z,1338.7
2023-03-23T21:21:32.049Z,1332.1
2023-03-23T21:23:15.800Z,1330.8
2023-03-23T21:24:59.380Z,1333.2
2023-03-23T21:26:43.053Z,1330
2023-03-23T21:28:26.860Z,1330.7
2023-03-23T21:30:10.448Z,1331.6
2023-03-23T21:31:54.142Z,1326.7
2023-03-23T21:33:38.007Z,1329.2
2023-03-23T21:35:21.531Z,1334.5
2023-03-23T21:37:05.321Z,1341.5
2023-03-23T21:38:48.903Z,1339
2023-03-23T21:40:32.763Z,1332.6
2023-03-23T21:42:16.508Z,1319.6
2023-03-23T21:44:00.146Z,1319.6
2023-03-23T21:45:43.708Z,1316.7
2023-03-23T21:47:27.551Z,1313.4
2023-03-23T21:49:11.187Z,1313.9
2023-03-23T21:50:54.893Z,1304.2
2023-03-23T21:52:38.875Z,1300.7
2023-03-23T21:54:22.369Z,1300.1